Etusivu
METAR-TAF:

METAR-TAF

Lentoasemat :

Tozeur, Tunisia

Leveyspiiri: 33-55N, Pituuspiiri: 008-06E, korkeus merenpinnasta: 87 m

Tämänhetkinen sää

Tämä raportti tehtiin 55 minuuttia sitten, kello 04.00 UTC
Tuuli 10 kn idästä
Lämpötila 21°C
Kosteus 73%
Ilmanpaine 1013 hPa
Näkyvyys 10 km tai enemmän
Muutamia pilviä 3300 ft:n korkeudessa

METAR: DTTZ 310400Z 08010KT 9999 FEW033 21/16 Q1013

Aika: 05:55 (04:55 UTC)

Sääennuste

Tämä raportti tehtiin 5 tuntia ja 55 minuuttia sitten, kello 23.00 UTC
Ennuste voimassa 31. päivästä klo 00 UTC - 31. päivään klo 24 UTC
Tuuli 13 kn idästä
Näkyvyys 10 km tai enemmän
Muutamia pilviä 3000 ft:n korkeudessa

TAF: DTTZ 302300Z 3100/3124 09013KT 9999 FEW030

Säähavainnot ja -ennusteet yli 4000 lentoasemalta (METAR- ja TAF-raportit).

Käytössä olevat sääasemat on merkitty karttaan keltaisilla ja punaisilla pisteillä.

Aseta hiiri pisteen päälle nähdäksesi sääaseman nimen.

Klikkaa sitten nähdäksesi säähavainnot ja -ennusteet.

Kartan vaihtaminen: klikkaa mustalla rastilla varustettuja vihreitä pisteitä, niin voit zoomata sisään; viivalla varustettua vihreää pistettä, niin voit zoomata ulos tai vihreitä nuolia, niin pääset viereisille kartoille.


METAR-TAF: